Time;durP1;ratioP1;P1;durP2;ratioP2;P2;SDS_P1;SDS_P2;PMS_P1;PMS_P2;Temp;Humidity;BMP_temperature;BMP_pressure;BME280_temperature;BME280_humidity;BME280_pressure;Samples;Min_cycle;Max_cycle;Signal;HPM_P1;HPM_P2
2022/11/26 00:07:34;;;;;;;10.75;3.85;;;;;;;8.32;79.21;100852.88;1085788;46;20050;-76
2022/11/26 00:08:35;;;;;;;12.90;4.40;;;;;;;8.34;78.88;100851.84;1083885;54;20054;-76
2022/11/26 00:09:40;;;;;;;15.45;4.53;;;;;;;8.41;78.86;100855.75;1083959;46;20026;-77
2022/11/26 00:10:41;;;;;;;9.52;4.43;;;;;;;8.52;78.55;100859.50;1083630;54;20059;-76
2022/11/26 00:11:45;;;;;;;9.18;4.35;;;;;;;8.60;78.33;100857.09;1084010;54;20056;-76
2022/11/26 00:12:47;;;;;;;9.30;3.72;;;;;;;8.68;78.02;100861.88;1083989;54;20046;-76
2022/11/26 00:13:51;;;;;;;7.90;4.00;;;;;;;8.72;78.25;100858.00;1083893;54;20038;-77
2022/11/26 00:14:53;;;;;;;6.78;3.40;;;;;;;8.76;78.05;100864.84;1083670;54;20065;-77
2022/11/26 00:15:59;;;;;;;7.53;3.60;;;;;;;8.82;77.99;100871.53;1083859;54;20050;-76
2022/11/26 00:17:01;;;;;;;7.95;3.40;;;;;;;8.82;77.91;100867.03;1083776;54;20567;-77
2022/11/26 00:18:05;;;;;;;8.43;3.20;;;;;;;8.78;77.81;100868.25;1083845;54;20106;-77
2022/11/26 00:19:07;;;;;;;9.00;3.28;;;;;;;8.76;77.83;100869.31;1084706;39;20572;-77
2022/11/26 00:20:11;;;;;;;8.45;3.30;;;;;;;8.76;78.08;100871.97;1084252;54;20829;-77
2022/11/26 00:21:19;;;;;;;9.27;3.15;;;;;;;8.84;77.80;100870.44;1084112;54;20114;-77
2022/11/26 00:22:27;;;;;;;8.35;3.17;;;;;;;8.84;78.16;100875.78;1084040;54;20090;-77
2022/11/26 00:23:34;;;;;;;7.05;3.20;;;;;;;8.85;78.09;100872.16;1083890;54;20077;-77
2022/11/26 00:24:35;;;;;;;8.02;3.08;;;;;;;8.86;77.87;100860.53;1084084;54;20062;-77
2022/11/26 00:25:43;;;;;;;8.30;3.30;;;;;;;8.85;77.76;100869.50;1083965;54;20062;-77
2022/11/26 00:26:45;;;;;;;8.65;3.30;;;;;;;8.86;77.87;100873.88;1084619;39;20545;-76
2022/11/26 00:27:49;;;;;;;7.10;3.45;;;;;;;8.90;77.88;100878.00;1084372;39;20516;-77
2022/11/26 00:28:54;;;;;;;6.78;2.88;;;;;;;8.90;77.74;100872.66;1083617;54;20141;-77
2022/11/26 00:29:58;;;;;;;8.02;3.20;;;;;;;8.83;77.83;100876.75;1083325;54;20065;-77
2022/11/26 00:31:02;;;;;;;9.70;3.38;;;;;;;8.86;77.94;100879.19;1083792;54;20102;-77
2022/11/26 00:32:11;;;;;;;7.75;3.22;;;;;;;8.89;77.84;100881.63;1083276;54;20043;-77
2022/11/26 00:33:12;;;;;;;7.93;3.40;;;;;;;8.86;77.56;100876.53;1083531;54;20115;-77
2022/11/26 00:34:17;;;;;;;7.47;3.75;;;;;;;8.87;77.70;100877.38;1083773;54;20035;-77
2022/11/26 00:35:18;;;;;;;10.05;4.05;;;;;;;8.85;77.61;100873.97;1083526;54;20165;-76
2022/11/26 00:36:26;;;;;;;9.05;3.72;;;;;;;8.83;77.66;100876.75;1083543;54;20073;-77
2022/11/26 00:37:34;;;;;;;10.70;4.15;;;;;;;8.82;77.92;100883.03;1083758;54;20039;-77
2022/11/26 00:38:41;;;;;;;7.60;3.28;;;;;;;8.84;77.73;100885.56;1083877;47;20034;-77
2022/11/26 00:39:42;;;;;;;8.18;3.60;;;;;;;8.85;77.85;100889.94;1083972;54;20153;-77
2022/11/26 00:40:47;;;;;;;10.85;4.22;;;;;;;8.81;77.94;100889.34;1083890;54;20038;-77
2022/11/26 00:41:51;;;;;;;8.85;4.50;;;;;;;8.75;77.94;100900.47;1084313;39;20702;-77
2022/11/26 00:42:56;;;;;;;7.13;4.20;;;;;;;8.74;77.91;100894.25;1083983;46;20100;-77
2022/11/26 00:43:58;;;;;;;9.05;3.70;;;;;;;8.77;77.63;100898.53;1083815;54;20057;-77
2022/11/26 00:45:02;;;;;;;12.20;5.07;;;;;;;8.70;78.23;100891.94;1083587;54;20038;-76
2022/11/26 00:46:04;;;;;;;7.40;3.78;;;;;;;8.76;78.06;100898.63;1083906;54;20058;-77
2022/11/26 00:47:08;;;;;;;11.30;4.55;;;;;;;8.79;77.72;100896.59;1083533;54;20042;-77
2022/11/26 00:48:10;;;;;;;11.85;5.43;;;;;;;8.74;77.79;100891.59;1083888;54;20050;-77
2022/11/26 00:49:14;;;;;;;11.13;4.75;;;;;;;8.66;77.85;100899.28;1083712;54;20039;-77
2022/11/26 00:50:18;;;;;;;10.85;5.25;;;;;;;8.67;77.96;100908.16;1083862;54;20496;-77
2022/11/26 00:51:26;;;;;;;10.40;4.30;;;;;;;8.73;77.64;100907.72;1083956;54;20189;-77
2022/11/26 00:52:31;;;;;;;11.85;4.38;;;;;;;8.78;77.58;100902.03;1084364;39;20543;-77
2022/11/26 00:53:35;;;;;;;12.32;4.53;;;;;;;8.76;77.67;100907.50;1083655;54;20053;-77
2022/11/26 00:54:39;;;;;;;12.30;4.30;;;;;;;8.76;77.64;100915.50;1083732;54;20137;-77
2022/11/26 00:55:47;;;;;;;7.90;3.58;;;;;;;8.79;77.63;100912.59;1083791;54;20042;-77
2022/11/26 00:56:49;;;;;;;7.43;3.85;;;;;;;8.83;77.37;100919.41;1083788;54;20054;-77
2022/11/26 00:57:53;;;;;;;8.85;4.30;;;;;;;8.84;77.64;100915.78;1083685;54;20041;-77
2022/11/26 00:58:55;;;;;;;11.18;4.15;;;;;;;8.87;77.40;100918.22;1083734;54;20127;-76
2022/11/26 00:59:59;;;;;;;6.93;2.97;;;;;;;8.88;77.47;100927.91;1083529;54;20065;-77
2022/11/26 01:01:00;;;;;;;9.23;3.67;;;;;;;8.90;77.51;100923.31;1084068;54;20813;-77
2022/11/26 01:02:04;;;;;;;7.50;4.15;;;;;;;8.89;77.44;100923.44;1083722;54;20046;-77
2022/11/26 01:03:06;;;;;;;8.43;3.53;;;;;;;8.90;77.48;100925.16;1083796;54;20634;-77
2022/11/26 01:04:10;;;;;;;11.98;5.00;;;;;;;8.84;77.47;100928.25;1083694;47;20651;-76
2022/11/26 01:05:12;;;;;;;8.25;4.45;;;;;;;8.84;77.23;100931.78;1083490;54;20057;-77
2022/11/26 01:06:20;;;;;;;7.97;3.90;;;;;;;8.86;77.54;100929.84;1083632;54;20038;-77
2022/11/26 01:07:21;;;;;;;12.75;4.55;;;;;;;8.84;77.20;100929.13;1083932;54;20171;-77
2022/11/26 01:08:31;;;;;;;9.77;4.38;;;;;;;8.83;77.11;100932.75;1083560;54;20042;-77
2022/11/26 01:09:33;;;;;;;9.20;4.43;;;;;;;8.81;77.25;100937.31;1083806;46;20576;-77
2022/11/26 01:10:39;;;;;;;12.13;4.80;;;;;;;8.82;77.08;100939.03;1083459;54;20046;-76
2022/11/26 01:11:41;;;;;;;8.73;4.28;;;;;;;8.82;76.97;100946.19;1083745;54;20073;-77
2022/11/26 01:12:45;;;;;;;10.55;4.30;;;;;;;8.82;77.50;100940.84;1083766;54;20048;-77
2022/11/26 01:13:48;;;;;;;8.70;3.90;;;;;;;8.85;77.22;100943.28;1083634;54;20050;-78
2022/11/26 01:14:53;;;;;;;10.15;4.35;;;;;;;8.83;77.06;100948.75;1083892;39;20754;-76
2022/11/26 01:15:55;;;;;;;9.32;4.03;;;;;;;8.83;76.97;100938.06;1083058;54;20989;-77
2022/11/26 01:16:59;;;;;;;9.18;4.57;;;;;;;8.80;77.13;100951.63;1083479;54;20045;-77
2022/11/26 01:18:00;;;;;;;8.65;3.78;;;;;;;8.82;77.34;100940.84;1082969;54;20049;-77
2022/11/26 01:19:04;;;;;;;10.90;4.60;;;;;;;8.73;77.37;100943.22;1083546;54;20038;-77
2022/11/26 01:20:22;;;;;;;9.77;4.28;;;;;;;8.61;77.47;100946.78;1083559;47;20065;-77
2022/11/26 01:21:28;;;;;;;12.38;4.53;;;;;;;8.46;78.31;100954.00;1084123;54;20599;-76
2022/11/26 01:22:30;;;;;;;12.77;4.90;;;;;;;8.39;78.31;100958.91;1083857;46;20072;-76
2022/11/26 01:23:34;;;;;;;15.45;5.00;;;;;;;8.43;78.12;100962.22;1083780;54;20919;-76
2022/11/26 01:24:35;;;;;;;14.13;4.32;;;;;;;8.37;78.24;100954.66;1083825;54;20154;-77
2022/11/26 01:25:43;;;;;;;16.35;5.35;;;;;;;8.32;78.58;100956.78;1083675;54;20038;-76
2022/11/26 01:26:44;;;;;;;11.10;3.83;;;;;;;8.32;78.28;100962.97;1083770;46;20042;-76
2022/11/26 01:27:48;;;;;;;13.27;4.38;;;;;;;8.26;78.40;100958.09;1083643;54;20038;-76
2022/11/26 01:28:50;;;;;;;13.50;4.85;;;;;;;8.19;78.64;100955.00;1083829;54;20054;-76
2022/11/26 01:29:54;;;;;;;11.18;4.45;;;;;;;8.21;78.54;100961.09;1083694;54;20652;-76
2022/11/26 01:30:56;;;;;;;14.43;4.32;;;;;;;8.22;78.52;100964.59;1083631;54;20072;-76
2022/11/26 01:32:00;;;;;;;11.98;3.97;;;;;;;8.30;78.41;100959.56;1083932;54;20560;-76
2022/11/26 01:33:02;;;;;;;12.95;4.75;;;;;;;8.23;78.73;100959.13;1084261;46;20050;-76
2022/11/26 01:34:06;;;;;;;12.63;4.43;;;;;;;8.21;78.55;100963.75;1083867;54;20042;-76
2022/11/26 01:35:09;;;;;;;11.57;3.80;;;;;;;8.24;78.46;100966.16;1083517;54;20065;-77
2022/11/26 01:36:27;;;;;;;10.75;4.43;;;;;;;8.22;78.68;100964.59;1084061;54;20038;-76
2022/11/26 01:37:28;;;;;;;12.93;4.65;;;;;;;8.20;78.64;100964.69;1084265;31;20525;-77
2022/11/26 01:38:33;;;;;;;9.80;3.58;;;;;;;8.27;78.63;100965.97;1084079;54;20034;-77
2022/11/26 01:39:34;;;;;;;11.40;4.47;;;;;;;8.26;78.18;100958.09;1083830;54;20087;-77
2022/11/26 01:40:56;;;;;;;9.45;3.80;;;;;;;8.25;78.36;100965.22;1083664;54;20038;-76
2022/11/26 01:42:04;;;;;;;9.75;3.85;;;;;;;8.08;78.93;100970.88;1083867;54;20129;-76
2022/11/26 01:43:15;;;;;;;13.70;4.35;;;;;;;8.05;79.21;100976.41;1083881;54;20061;-76
2022/11/26 01:44:20;;;;;;;13.48;4.32;;;;;;;8.07;78.96;100970.03;1084015;54;20062;-76
2022/11/26 01:45:25;;;;;;;12.70;4.28;;;;;;;8.08;78.96;100977.03;1083482;54;20049;-76
2022/11/26 01:46:32;;;;;;;13.90;4.38;;;;;;;8.00;79.13;100983.88;1083621;54;20042;-76
2022/11/26 01:47:36;;;;;;;12.10;4.55;;;;;;;7.97;79.67;100977.78;1083859;54;20045;-76
2022/11/26 01:48:37;;;;;;;12.80;4.10;;;;;;;7.92;79.59;100979.94;1084033;54;20054;-76
2022/11/26 01:49:41;;;;;;;13.63;4.38;;;;;;;7.92;79.43;100979.94;1084102;47;20137;-76
2022/11/26 01:50:59;;;;;;;12.90;3.55;;;;;;;8.00;79.13;100982.03;1083870;54;20134;-76
2022/11/26 01:52:08;;;;;;;12.27;4.43;;;;;;;7.82;79.69;100981.50;1083501;54;20076;-76
2022/11/26 01:53:13;;;;;;;12.95;4.97;;;;;;;7.73;80.19;100982.13;1084116;54;20089;-76
2022/11/26 01:54:18;;;;;;;10.93;3.95;;;;;;;7.70;80.38;100977.84;1084251;46;20038;-75
2022/11/26 01:55:20;;;;;;;10.57;4.30;;;;;;;7.75;80.39;100974.88;1083910;54;20054;-76
2022/11/26 01:56:34;;;;;;;14.32;4.75;;;;;;;7.83;79.68;100983.22;1083981;54;20034;-76
2022/11/26 01:57:37;;;;;;;8.60;3.63;;;;;;;7.93;79.31;100981.63;1083907;54;20061;-76
2022/11/26 01:58:45;;;;;;;9.85;3.88;;;;;;;7.94;79.20;100985.13;1084178;54;20166;-76
2022/11/26 01:59:52;;;;;;;11.55;3.65;;;;;;;7.98;79.23;100981.31;1084569;39;20485;-76
2022/11/26 02:00:53;;;;;;;11.57;4.13;;;;;;;8.00;79.20;100974.06;1086435;54;20043;-78
2022/11/26 02:02:00;;;;;;;10.95;4.55;;;;;;;7.96;79.15;100980.56;1086394;54;20034;-76
2022/11/26 02:03:03;;;;;;;12.38;4.47;;;;;;;7.95;78.94;100974.38;1086681;46;20046;-76
2022/11/26 02:04:14;;;;;;;13.57;5.05;;;;;;;7.93;79.13;100973.66;1085361;54;20098;-76
2022/11/26 02:05:21;;;;;;;9.57;3.50;;;;;;;7.94;79.07;100977.97;1084129;54;20089;-76
2022/11/26 02:06:29;;;;;;;11.50;4.22;;;;;;;7.91;79.29;100975.56;1083727;54;20045;-76
2022/11/26 02:07:33;;;;;;;12.55;3.90;;;;;;;7.84;79.85;100978.72;1083992;54;20093;-76
2022/11/26 02:08:35;;;;;;;11.73;4.25;;;;;;;7.85;79.80;100981.28;1083721;54;20065;-75
2022/11/26 02:09:41;;;;;;;9.57;3.90;;;;;;;8.01;79.38;100981.09;1084104;54;20572;-76
2022/11/26 02:10:43;;;;;;;10.50;3.83;;;;;;;8.03;79.24;100981.84;1084049;54;20054;-77
2022/11/26 02:11:50;;;;;;;12.48;4.10;;;;;;;8.10;78.91;100985.78;1084149;54;20043;-76
2022/11/26 02:12:51;;;;;;;8.20;3.63;;;;;;;8.19;78.38;100988.75;1083879;54;20054;-76
2022/11/26 02:14:00;;;;;;;9.45;3.15;;;;;;;8.20;78.39;100994.00;1083885;54;20046;-76
2022/11/26 02:15:02;;;;;;;7.65;2.90;;;;;;;8.25;78.35;100993.69;1083530;54;20556;-76
2022/11/26 02:16:13;;;;;;;10.20;3.47;;;;;;;8.27;78.16;100986.41;1083975;54;20038;-75
2022/11/26 02:17:24;;;;;;;8.00;2.75;;;;;;;8.27;78.02;100987.28;1084257;47;20050;-76
2022/11/26 02:18:36;;;;;;;6.72;2.53;;;;;;;8.32;78.08;100986.09;1084013;54;20073;-76
2022/11/26 02:20:05;;;;;;;7.95;2.53;;;;;;;8.35;77.87;100988.56;1084107;54;20153;-76
2022/11/26 02:21:11;;;;;;;7.03;2.58;;;;;;;8.38;77.95;100989.19;1084025;54;20061;-75
2022/11/26 02:22:34;;;;;;;7.07;2.88;;;;;;;8.38;77.85;100999.00;1085552;54;20030;-76
2022/11/26 02:24:14;;;;;;;6.80;2.75;;;;;;;8.41;77.83;100999.63;1086218;54;20050;-76
2022/11/26 02:25:19;;;;;;;7.18;2.58;;;;;;;8.42;77.73;101004.00;1086156;47;20157;-78
2022/11/26 02:26:46;;;;;;;6.90;2.55;;;;;;;8.48;77.68;101000.09;1086019;54;20038;-76
2022/11/26 02:28:26;;;;;;;7.13;2.80;;;;;;;8.45;77.71;101010.09;1086050;54;20154;-76
2022/11/26 02:29:55;;;;;;;5.82;2.40;;;;;;;8.50;77.76;101011.47;1085844;54;20058;-76
2022/11/26 02:31:04;;;;;;;9.82;3.22;;;;;;;8.34;78.27;101018.81;1086604;54;20050;-77
2022/11/26 02:32:12;;;;;;;8.32;3.03;;;;;;;8.41;78.23;101017.41;1085656;39;20527;-76
2022/11/26 02:33:20;;;;;;;9.60;3.90;;;;;;;8.36;78.08;101011.56;1086256;47;20030;-79
2022/11/26 02:34:31;;;;;;;11.98;3.40;;;;;;;8.33;78.39;101027.75;1086566;54;20639;-76
2022/11/26 02:35:39;;;;;;;8.63;3.13;;;;;;;8.35;78.26;101016.06;1086112;54;20105;-77
2022/11/26 02:36:50;;;;;;;9.98;3.45;;;;;;;8.42;77.95;101017.34;1086745;54;20038;-76
2022/11/26 02:37:55;;;;;;;8.38;2.90;;;;;;;8.45;77.90;101015.41;1084309;54;20042;-76
2022/11/26 02:39:11;;;;;;;10.65;3.90;;;;;;;8.34;78.46;101027.69;1084276;54;20042;-77
2022/11/26 02:40:13;;;;;;;7.63;3.38;;;;;;;8.42;77.84;101035.13;1084142;54;20061;-79
2022/11/26 02:41:17;;;;;;;6.35;2.60;;;;;;;8.51;77.71;101028.34;1084085;54;20042;-78
2022/11/26 02:42:23;;;;;;;8.18;2.80;;;;;;;8.50;77.70;101035.47;1085083;39;21558;-77
2022/11/26 02:43:28;;;;;;;8.20;2.78;;;;;;;8.49;77.83;101035.59;1084223;54;20089;-77
2022/11/26 02:44:35;;;;;;;6.88;2.70;;;;;;;8.55;77.74;101033.34;1084288;47;20054;-77
2022/11/26 02:45:46;;;;;;;9.00;3.55;;;;;;;8.43;77.82;101037.69;1083800;54;20065;-76
2022/11/26 02:46:53;;;;;;;11.30;3.63;;;;;;;8.37;78.13;101045.25;1084490;54;20053;-76
2022/11/26 02:48:01;;;;;;;14.05;4.22;;;;;;;8.33;78.39;101043.75;1084556;47;20038;-77
2022/11/26 02:49:04;;;;;;;9.02;3.53;;;;;;;8.21;78.57;101041.00;1085040;47;20050;-76
2022/11/26 02:50:13;;;;;;;12.02;4.50;;;;;;;8.22;78.73;101044.50;1084541;54;20057;-78
2022/11/26 02:51:22;;;;;;;13.20;3.70;;;;;;;8.24;78.64;101045.25;1084156;54;20157;-76
2022/11/26 02:52:26;;;;;;;12.43;3.88;;;;;;;8.24;78.70;101038.09;1085539;31;20839;-77
2022/11/26 02:53:34;;;;;;;11.82;4.25;;;;;;;8.41;78.13;101049.41;1083927;47;20042;-77
2022/11/26 02:54:37;;;;;;;9.38;3.08;;;;;;;8.43;78.10;101045.69;1083968;54;20042;-77
2022/11/26 02:55:45;;;;;;;10.00;3.00;;;;;;;8.47;77.86;101049.03;1084098;54;20030;-76
2022/11/26 02:56:47;;;;;;;8.50;3.33;;;;;;;8.53;77.61;101055.75;1084216;54;20074;-76
2022/11/26 02:57:53;;;;;;;6.45;2.88;;;;;;;8.59;77.42;101044.66;1084528;54;20042;-76
2022/11/26 02:58:56;;;;;;;9.73;3.03;;;;;;;8.58;77.75;101054.47;1085278;54;20089;-77
2022/11/26 03:00:00;;;;;;;7.07;2.78;;;;;;;8.66;77.45;101050.41;1085545;54;20078;-77
2022/11/26 03:01:09;;;;;;;7.20;2.60;;;;;;;8.67;77.59;101055.63;1085762;54;20042;-76
2022/11/26 03:02:18;;;;;;;7.72;3.55;;;;;;;8.58;77.66;101057.13;1085406;54;20039;-76
2022/11/26 03:03:25;;;;;;;11.02;5.53;;;;;;;8.47;77.77;101059.69;1085797;54;20050;-77
2022/11/26 03:04:35;;;;;;;11.27;4.93;;;;;;;8.55;77.95;101060.00;1085652;54;20036;-76
2022/11/26 03:05:39;;;;;;;8.50;4.90;;;;;;;8.53;77.85;101061.06;1085335;54;20038;-76
2022/11/26 03:06:44;;;;;;;9.63;4.50;;;;;;;8.60;77.43;101057.00;1085516;54;20042;-76
2022/11/26 03:07:48;;;;;;;8.85;4.55;;;;;;;8.60;77.66;101064.16;1084860;54;20065;-76
2022/11/26 03:08:52;;;;;;;13.82;5.82;;;;;;;8.52;77.66;101065.53;1085147;54;20039;-76
2022/11/26 03:09:55;;;;;;;8.70;3.75;;;;;;;8.62;77.47;101059.56;1084930;54;20165;-76
2022/11/26 03:11:00;;;;;;;9.02;3.88;;;;;;;8.63;77.64;101058.59;1085508;47;20065;-76
2022/11/26 03:12:01;;;;;;;10.35;4.50;;;;;;;8.60;77.93;101059.69;1085694;47;20054;-76
2022/11/26 03:13:05;;;;;;;9.75;3.78;;;;;;;8.60;77.81;101058.84;1085572;54;20041;-76
2022/11/26 03:14:07;;;;;;;10.35;4.57;;;;;;;8.66;77.60;101055.72;1085671;54;20750;-76
2022/11/26 03:15:12;;;;;;;6.85;3.20;;;;;;;8.71;77.46;101064.25;1085431;54;20042;-76
2022/11/26 03:16:16;;;;;;;9.82;4.75;;;;;;;8.73;77.28;101067.66;1085611;54;20023;-76
2022/11/26 03:17:20;;;;;;;8.02;3.60;;;;;;;8.70;77.58;101063.41;1085497;54;20031;-76
2022/11/26 03:18:22;;;;;;;8.85;3.88;;;;;;;8.69;77.40;101063.53;1085725;47;20057;-76
2022/11/26 03:19:26;;;;;;;11.02;3.75;;;;;;;8.68;77.38;101065.31;1085345;54;20038;-76
2022/11/26 03:20:28;;;;;;;10.60;3.72;;;;;;;8.69;77.35;101060.88;1085632;54;20138;-76
2022/11/26 03:21:33;;;;;;;7.72;3.30;;;;;;;8.72;77.15;101061.50;1085921;47;20042;-76
2022/11/26 03:22:35;;;;;;;11.48;3.90;;;;;;;8.70;77.35;101058.06;1085711;54;20090;-76
2022/11/26 03:23:39;;;;;;;8.98;3.63;;;;;;;8.72;77.21;101060.63;1085362;54;20041;-76
2022/11/26 03:24:41;;;;;;;9.35;3.40;;;;;;;8.71;77.04;101064.25;1085478;54;20069;-76
2022/11/26 03:25:45;;;;;;;9.98;3.72;;;;;;;8.67;77.42;101066.28;1085263;54;20062;-77
2022/11/26 03:26:47;;;;;;;10.70;3.42;;;;;;;8.70;77.41;101076.75;1085376;54;20616;-77
2022/11/26 03:27:51;;;;;;;8.68;3.40;;;;;;;8.64;77.32;101074.50;1085077;54;20046;-76
2022/11/26 03:28:52;;;;;;;10.82;3.83;;;;;;;8.68;77.43;101078.66;1085079;54;20114;-76
2022/11/26 03:29:56;;;;;;;8.45;3.38;;;;;;;8.67;77.29;101076.09;1085288;54;20034;-76
2022/11/26 03:31:01;;;;;;;8.70;3.20;;;;;;;8.63;77.27;101071.94;1085639;47;20053;-76
2022/11/26 03:32:05;;;;;;;9.80;3.58;;;;;;;8.67;77.40;101068.09;1085815;39;20565;-76
2022/11/26 03:33:09;;;;;;;9.20;3.30;;;;;;;8.63;77.19;101071.94;1085190;54;20038;-76
2022/11/26 03:34:10;;;;;;;9.02;3.20;;;;;;;8.67;77.37;101065.44;1085204;54;20094;-77
2022/11/26 03:35:14;;;;;;;9.20;3.38;;;;;;;8.68;77.30;101060.00;1084860;47;20620;-76
2022/11/26 03:36:16;;;;;;;9.52;3.50;;;;;;;8.60;77.33;101059.69;1084541;54;20051;-76
2022/11/26 03:37:21;;;;;;;10.23;3.70;;;;;;;8.63;77.36;101071.94;1084586;54;20043;-76
2022/11/26 03:38:22;;;;;;;11.00;4.45;;;;;;;8.51;77.86;101071.81;1085345;46;20038;-76
2022/11/26 03:39:26;;;;;;;10.48;3.45;;;;;;;8.50;78.12;101064.78;1085047;46;20030;-77
2022/11/26 03:40:28;;;;;;;8.43;4.03;;;;;;;8.54;78.05;101079.63;1085539;39;20564;-76
2022/11/26 03:41:32;;;;;;;10.00;3.50;;;;;;;8.57;78.02;101074.09;1084921;54;20062;-76
2022/11/26 03:42:34;;;;;;;8.73;3.42;;;;;;;8.61;77.79;101080.03;1084514;54;20037;-76
2022/11/26 03:43:38;;;;;;;7.78;3.10;;;;;;;8.65;77.46;101075.34;1084082;54;20046;-78
2022/11/26 03:44:39;;;;;;;7.38;3.08;;;;;;;8.67;77.56;101084.09;1084201;54;20149;-75
2022/11/26 03:45:43;;;;;;;10.00;3.28;;;;;;;8.69;77.50;101088.34;1084168;54;20042;-76
2022/11/26 03:46:45;;;;;;;7.30;2.97;;;;;;;8.65;77.73;101083.34;1083790;54;20110;-76
2022/11/26 03:47:51;;;;;;;9.15;3.67;;;;;;;8.50;77.93;101086.09;1083904;54;20062;-76
2022/11/26 03:48:53;;;;;;;11.48;3.53;;;;;;;8.49;77.93;101081.75;1084759;39;20487;-76
2022/11/26 03:49:57;;;;;;;11.98;3.35;;;;;;;8.58;77.86;101086.44;1084472;54;20038;-76
2022/11/26 03:50:58;;;;;;;11.25;3.80;;;;;;;8.66;77.53;101093.88;1084331;54;20628;-76
2022/11/26 03:52:03;;;;;;;7.32;2.78;;;;;;;8.71;77.30;101091.78;1084348;54;20066;-75
2022/11/26 03:53:04;;;;;;;8.60;3.28;;;;;;;8.70;77.39;101084.75;1085014;54;20054;-76
2022/11/26 03:54:08;;;;;;;12.90;3.42;;;;;;;8.64;77.55;101092.31;1085177;54;20046;-76
2022/11/26 03:55:10;;;;;;;11.23;3.50;;;;;;;8.64;77.54;101089.63;1084901;54;20054;-76
2022/11/26 03:56:14;;;;;;;11.18;4.20;;;;;;;8.52;77.95;101089.53;1085588;54;20046;-78
2022/11/26 03:57:15;;;;;;;10.65;3.83;;;;;;;8.53;77.86;101088.56;1084974;54;20102;-76
2022/11/26 03:58:19;;;;;;;8.68;3.42;;;;;;;8.56;77.70;101085.69;1085146;54;20042;-77
2022/11/26 03:59:21;;;;;;;13.20;4.07;;;;;;;8.51;78.14;101084.31;1085185;54;20046;-76
2022/11/26 04:00:25;;;;;;;15.13;5.00;;;;;;;8.45;78.13;101080.22;1084875;54;20034;-76
2022/11/26 04:01:27;;;;;;;11.40;3.88;;;;;;;8.53;77.98;101090.41;1084862;54;20053;-76
2022/11/26 04:02:31;;;;;;;11.90;3.88;;;;;;;8.53;77.84;101088.56;1084272;54;20042;-76
2022/11/26 04:03:35;;;;;;;8.48;3.72;;;;;;;8.55;77.62;101089.31;1084177;54;21092;-76
2022/11/26 04:04:39;;;;;;;10.52;3.53;;;;;;;8.58;77.82;101089.13;1084340;54;20038;-76
2022/11/26 04:05:41;;;;;;;11.65;3.60;;;;;;;8.59;77.66;101087.28;1084377;54;20051;-76
2022/11/26 04:06:45;;;;;;;7.85;3.00;;;;;;;8.67;77.38;101084.09;1084221;54;20043;-76
2022/11/26 04:07:46;;;;;;;8.13;2.92;;;;;;;8.68;77.33;101085.81;1085275;39;20512;-76
2022/11/26 04:08:50;;;;;;;10.20;3.85;;;;;;;8.67;77.48;101084.09;1084260;54;20039;-76
2022/11/26 04:09:52;;;;;;;9.10;3.08;;;;;;;8.54;77.54;101084.94;1084110;54;20079;-76
2022/11/26 04:10:56;;;;;;;12.27;4.22;;;;;;;8.46;78.23;101081.06;1084522;54;20038;-76
2022/11/26 04:11:57;;;;;;;10.40;4.05;;;;;;;8.45;78.01;101090.03;1085987;31;20509;-76
2022/11/26 04:13:02;;;;;;;11.55;3.60;;;;;;;8.45;78.12;101082.03;1084367;54;20038;-76
2022/11/26 04:14:03;;;;;;;11.95;3.35;;;;;;;8.44;77.86;101086.50;1084469;54;20647;-76
2022/11/26 04:15:08;;;;;;;12.23;4.32;;;;;;;8.48;77.76;101087.16;1084287;54;20043;-76
2022/11/26 04:16:10;;;;;;;13.77;4.55;;;;;;;8.53;77.56;101093.91;1084183;54;20071;-76
2022/11/26 04:17:14;;;;;;;12.13;3.58;;;;;;;8.55;77.67;101089.31;1084205;54;20042;-76
2022/11/26 04:18:16;;;;;;;9.27;3.42;;;;;;;8.58;77.48;101085.56;1084503;54;20054;-76
2022/11/26 04:19:22;;;;;;;9.32;3.42;;;;;;;8.63;77.21;101090.59;1084619;54;20858;-76
2022/11/26 04:20:24;;;;;;;9.50;3.75;;;;;;;8.68;77.25;101091.16;1085215;46;20050;-77
2022/11/26 04:21:28;;;;;;;7.82;2.95;;;;;;;8.68;77.20;101091.16;1084257;54;20042;-76
2022/11/26 04:22:29;;;;;;;9.77;3.95;;;;;;;8.66;77.28;101087.72;1084127;54;20151;-76
2022/11/26 04:23:33;;;;;;;7.78;2.72;;;;;;;8.69;77.03;101088.34;1084367;54;20061;-75
2022/11/26 04:24:35;;;;;;;12.55;3.65;;;;;;;8.67;77.17;101084.09;1084184;54;20054;-76
2022/11/26 04:25:39;;;;;;;7.50;2.92;;;;;;;8.72;76.83;101092.63;1084470;54;20035;-76
2022/11/26 04:26:40;;;;;;;8.40;3.22;;;;;;;8.71;77.01;101086.44;1083707;54;20098;-76
2022/11/26 04:27:45;;;;;;;7.70;3.00;;;;;;;8.74;76.83;101090.69;1083978;54;20058;-76
2022/11/26 04:28:46;;;;;;;8.95;2.75;;;;;;;8.70;76.83;101089.19;1084235;54;20102;-76
2022/11/26 04:29:50;;;;;;;7.13;2.60;;;;;;;8.72;76.62;101088.16;1084275;54;20038;-76
2022/11/26 04:30:52;;;;;;;6.78;2.42;;;;;;;8.74;76.89;101094.22;1084487;39;20168;-76
2022/11/26 04:31:56;;;;;;;7.07;2.80;;;;;;;8.75;76.92;101092.41;1085361;39;20780;-76
2022/11/26 04:32:57;;;;;;;5.93;2.67;;;;;;;8.76;76.81;101093.25;1084210;54;20042;-76
2022/11/26 04:34:01;;;;;;;8.70;2.88;;;;;;;8.71;76.90;101099.78;1085037;39;20446;-76
2022/11/26 04:35:07;;;;;;;7.95;3.10;;;;;;;8.63;76.82;101099.47;1085632;54;20711;-76
2022/11/26 04:36:11;;;;;;;8.65;2.75;;;;;;;8.66;77.28;101101.06;1085933;54;20069;-77
2022/11/26 04:37:13;;;;;;;9.23;3.67;;;;;;;8.56;76.93;101098.16;1086384;46;20137;-76
2022/11/26 04:38:17;;;;;;;10.07;3.65;;;;;;;8.56;77.31;101098.16;1084904;54;20061;-76
2022/11/26 04:39:18;;;;;;;10.63;3.20;;;;;;;8.55;77.25;101097.31;1084567;54;20568;-76
2022/11/26 04:40:22;;;;;;;10.20;3.55;;;;;;;8.56;77.21;101099.03;1084513;54;20039;-76
2022/11/26 04:41:24;;;;;;;7.03;2.50;;;;;;;8.59;77.15;101095.28;1084958;46;20050;-76
2022/11/26 04:42:28;;;;;;;6.85;2.70;;;;;;;8.59;76.87;101103.28;1084319;54;20082;-76
2022/11/26 04:43:30;;;;;;;5.70;2.60;;;;;;;8.58;76.93;101102.44;1084594;46;20568;-76
2022/11/26 04:44:34;;;;;;;6.15;3.17;;;;;;;8.55;77.26;101099.97;1084529;46;20034;-75
2022/11/26 04:45:36;;;;;;;9.00;3.50;;;;;;;8.58;76.94;101096.25;1084437;47;20094;-76
2022/11/26 04:46:40;;;;;;;7.07;2.97;;;;;;;8.60;77.08;101101.50;1083392;54;20038;-76
2022/11/26 04:47:41;;;;;;;5.90;2.45;;;;;;;8.58;76.96;101099.78;1082942;54;20137;-75
2022/11/26 04:48:45;;;;;;;5.22;2.42;;;;;;;8.58;76.96;101107.78;1083547;54;20058;-76
2022/11/26 04:49:47;;;;;;;6.80;2.88;;;;;;;8.58;77.36;101097.13;1083990;54;20142;-76
2022/11/26 04:50:54;;;;;;;5.93;2.65;;;;;;;8.61;76.87;101097.84;1084239;54;20045;-76
2022/11/26 04:51:55;;;;;;;6.63;3.25;;;;;;;8.59;77.24;101105.94;1084105;54;20073;-76
2022/11/26 04:52:59;;;;;;;8.40;2.75;;;;;;;8.57;76.92;101099.88;1083871;54;20135;-76
2022/11/26 04:54:01;;;;;;;8.15;3.00;;;;;;;8.56;77.15;101096.34;1083920;54;20050;-76
2022/11/26 04:55:05;;;;;;;7.25;2.92;;;;;;;8.57;76.98;101103.41;1084307;46;20034;-76
2022/11/26 04:56:07;;;;;;;7.97;3.67;;;;;;;8.55;77.14;101102.66;1084180;54;20810;-76
2022/11/26 04:57:11;;;;;;;6.93;3.15;;;;;;;8.55;77.04;101097.31;1083916;54;20038;-77
2022/11/26 04:58:12;;;;;;;7.80;3.35;;;;;;;8.52;77.27;101100.19;1084188;54;20046;-77
2022/11/26 04:59:17;;;;;;;9.25;3.00;;;;;;;8.49;76.98;101100.41;1083983;54;20042;-78
2022/11/26 05:00:19;;;;;;;8.98;4.05;;;;;;;8.49;77.19;101105.75;1084118;54;20137;-76
2022/11/26 05:01:23;;;;;;;8.35;2.92;;;;;;;8.49;77.07;101104.88;1083828;54;20038;-75
2022/11/26 05:02:25;;;;;;;7.75;3.25;;;;;;;8.48;77.42;101112.03;1084187;47;20137;-76
2022/11/26 05:03:29;;;;;;;9.68;2.83;;;;;;;8.49;77.35;101108.41;1083951;54;20062;-76
2022/11/26 05:04:31;;;;;;;7.53;2.50;;;;;;;8.48;77.36;101114.69;1083968;54;20042;-76
2022/11/26 05:05:35;;;;;;;6.82;2.83;;;;;;;8.50;77.17;101110.09;1084591;39;20437;-76
2022/11/26 05:06:39;;;;;;;9.20;2.80;;;;;;;8.47;77.01;101109.41;1083955;54;20111;-77
2022/11/26 05:07:43;;;;;;;8.20;3.25;;;;;;;8.46;76.95;101121.03;1084090;54;20038;-76
2022/11/26 05:08:44;;;;;;;6.82;2.47;;;;;;;8.44;76.87;101121.16;1083164;54;20145;-76
2022/11/26 05:09:48;;;;;;;7.72;3.10;;;;;;;8.39;77.11;101110.81;1083666;39;20792;-76
2022/11/26 05:10:53;;;;;;;6.80;3.42;;;;;;;8.37;77.08;101112.72;1083929;54;20070;-76